Time;durP1;ratioP1;P1;durP2;ratioP2;P2;SDS_P1;SDS_P2;PMS_P1;PMS_P2;Temp;Humidity;BMP_temperature;BMP_pressure;BME280_temperature;BME280_humidity;BME280_pressure;Samples;Min_cycle;Max_cycle;Signal;HPM_P1;HPM_P2
2022/06/20 00:00:55;;;;;;;18.7;11.55;;;;;;;22.14;62.12988;94580.95;;;;
2022/06/20 00:01:58;;;;;;;18.7;11.55;;;;;;;22.14;62.12988;94580.95;;;;
2022/06/20 00:02:59;;;;;;;15.05;11;;;;;;;22.11;62.53613;94588.69;;;;
2022/06/20 00:04:00;;;;;;;15.05;11;;;;;;;22.11;62.53613;94588.69;;;;
2022/06/20 00:05:01;;;;;;;15.05;11;;;;;;;22.11;62.53613;94588.69;;;;
2022/06/20 00:06:03;;;;;;;15.05;11;;;;;;;22.11;62.53613;94588.69;;;;
2022/06/20 00:07:04;;;;;;;15.05;11;;;;;;;22.11;62.53613;94588.69;;;;
2022/06/20 00:08:04;;;;;;;15.05;11;;;;;;;22.11;62.53613;94588.69;;;;
2022/06/20 00:09:05;;;;;;;15.05;11;;;;;;;22.11;62.53613;94588.69;;;;
2022/06/20 00:10:06;;;;;;;15.05;11;;;;;;;22.11;62.53613;94588.69;;;;
2022/06/20 00:11:07;;;;;;;15.05;11;;;;;;;22.11;62.53613;94588.69;;;;
2022/06/20 00:12:12;;;;;;;15.05;11;;;;;;;22.11;62.53613;94588.69;;;;
2022/06/20 00:13:17;;;;;;;18.55;11.3;;;;;;;22.08;62.6416;94587.95;;;;
2022/06/20 00:14:21;;;;;;;18.55;11.3;;;;;;;22.08;62.6416;94587.95;;;;
2022/06/20 00:15:22;;;;;;;18.55;11.3;;;;;;;22.08;62.6416;94587.95;;;;
2022/06/20 00:16:26;;;;;;;18.55;11.3;;;;;;;22.08;62.6416;94587.95;;;;
2022/06/20 00:17:27;;;;;;;18.55;11.3;;;;;;;22.08;62.6416;94587.95;;;;
2022/06/20 00:18:27;;;;;;;18.55;11.3;;;;;;;22.08;62.6416;94587.95;;;;
2022/06/20 00:19:29;;;;;;;18.55;11.3;;;;;;;22.08;62.6416;94587.95;;;;
2022/06/20 00:20:29;;;;;;;18.55;11.3;;;;;;;22.08;62.6416;94587.95;;;;
2022/06/20 00:21:30;;;;;;;18.55;11.3;;;;;;;22.08;62.6416;94587.95;;;;
2022/06/20 00:22:31;;;;;;;18.55;11.3;;;;;;;22.08;62.6416;94587.95;;;;
2022/06/20 00:23:31;;;;;;;18.55;11.3;;;;;;;22.08;62.6416;94587.95;;;;
2022/06/20 00:24:32;;;;;;;16.65;11.25;;;;;;;21.87;62.87891;94578.11;;;;
2022/06/20 00:25:33;;;;;;;16.65;11.25;;;;;;;21.87;62.87891;94578.11;;;;
2022/06/20 00:26:35;;;;;;;16.65;11.25;;;;;;;21.87;62.87891;94578.11;;;;
2022/06/20 00:27:36;;;;;;;16.65;11.25;;;;;;;21.87;62.87891;94578.11;;;;
2022/06/20 00:28:36;;;;;;;16.65;11.25;;;;;;;21.87;62.87891;94578.11;;;;
2022/06/20 00:29:37;;;;;;;16.65;11.25;;;;;;;21.87;62.87891;94578.11;;;;
2022/06/20 00:30:40;;;;;;;16.65;11.25;;;;;;;21.87;62.87891;94578.11;;;;
2022/06/20 00:31:41;;;;;;;16.65;11.25;;;;;;;21.87;62.87891;94578.11;;;;
2022/06/20 00:32:42;;;;;;;16.65;11.25;;;;;;;21.87;62.87891;94578.11;;;;
2022/06/20 00:33:42;;;;;;;16.65;11.25;;;;;;;21.87;62.87891;94578.11;;;;
2022/06/20 00:34:43;;;;;;;14.75;11.7;;;;;;;21.75;63.30469;94578.33;;;;
2022/06/20 00:35:43;;;;;;;14.75;11.7;;;;;;;21.75;63.30469;94578.33;;;;
2022/06/20 00:36:44;;;;;;;14.75;11.7;;;;;;;21.75;63.30469;94578.33;;;;
2022/06/20 00:37:44;;;;;;;14.75;11.7;;;;;;;21.75;63.30469;94578.33;;;;
2022/06/20 00:38:46;;;;;;;14.75;11.7;;;;;;;21.75;63.30469;94578.33;;;;
2022/06/20 00:39:50;;;;;;;14.75;11.7;;;;;;;21.75;63.30469;94578.33;;;;
2022/06/20 00:40:51;;;;;;;14.75;11.7;;;;;;;21.75;63.30469;94578.33;;;;
2022/06/20 00:41:54;;;;;;;14.75;11.7;;;;;;;21.75;63.30469;94578.33;;;;
2022/06/20 00:42:57;;;;;;;14.75;11.7;;;;;;;21.75;63.30469;94578.33;;;;
2022/06/20 00:43:58;;;;;;;14.75;11.7;;;;;;;21.75;63.30469;94578.33;;;;
2022/06/20 00:45:00;;;;;;;14.8;11.1;;;;;;;21.54;63.64063;94569.45;;;;
2022/06/20 00:46:04;;;;;;;14.8;11.1;;;;;;;21.54;63.64063;94569.45;;;;
2022/06/20 00:47:08;;;;;;;14.8;11.1;;;;;;;21.54;63.64063;94569.45;;;;
2022/06/20 00:48:12;;;;;;;14.8;11.1;;;;;;;21.54;63.64063;94569.45;;;;
2022/06/20 00:49:18;;;;;;;14.8;11.1;;;;;;;21.54;63.64063;94569.45;;;;
2022/06/20 00:50:24;;;;;;;14.8;11.1;;;;;;;21.54;63.64063;94569.45;;;;
2022/06/20 00:51:29;;;;;;;14.8;11.1;;;;;;;21.54;63.64063;94569.45;;;;
2022/06/20 00:52:36;;;;;;;14.8;11.1;;;;;;;21.54;63.64063;94569.45;;;;
2022/06/20 00:53:43;;;;;;;14.8;11.1;;;;;;;21.54;63.64063;94569.45;;;;
2022/06/20 00:54:49;;;;;;;14.8;11.1;;;;;;;21.54;63.64063;94569.45;;;;
2022/06/20 00:55:54;;;;;;;15.8;11.3;;;;;;;21.38;63.91699;94568.53;;;;
2022/06/20 00:56:59;;;;;;;15.8;11.3;;;;;;;21.38;63.91699;94568.53;;;;
2022/06/20 00:58:06;;;;;;;15.8;11.3;;;;;;;21.38;63.91699;94568.53;;;;
2022/06/20 00:59:14;;;;;;;15.8;11.3;;;;;;;21.38;63.91699;94568.53;;;;
2022/06/20 01:00:19;;;;;;;15.8;11.3;;;;;;;21.38;63.91699;94568.53;;;;
2022/06/20 01:01:23;;;;;;;15.8;11.3;;;;;;;21.38;63.91699;94568.53;;;;
2022/06/20 01:02:30;;;;;;;15.8;11.3;;;;;;;21.38;63.91699;94568.53;;;;
2022/06/20 01:03:34;;;;;;;15.8;11.3;;;;;;;21.38;63.91699;94568.53;;;;
2022/06/20 01:04:39;;;;;;;15.8;11.3;;;;;;;21.38;63.91699;94568.53;;;;
2022/06/20 01:05:44;;;;;;;15.8;11.3;;;;;;;21.38;63.91699;94568.53;;;;
2022/06/20 01:06:50;;;;;;;17.25;12.1;;;;;;;21.12;64.36523;94571.41;;;;
2022/06/20 01:07:54;;;;;;;17.25;12.1;;;;;;;21.12;64.36523;94571.41;;;;
2022/06/20 01:09:02;;;;;;;17.25;12.1;;;;;;;21.12;64.36523;94571.41;;;;
2022/06/20 01:10:06;;;;;;;17.25;12.1;;;;;;;21.12;64.36523;94571.41;;;;
2022/06/20 01:11:10;;;;;;;17.25;12.1;;;;;;;21.12;64.36523;94571.41;;;;
2022/06/20 01:12:15;;;;;;;17.25;12.1;;;;;;;21.12;64.36523;94571.41;;;;
2022/06/20 01:13:19;;;;;;;17.25;12.1;;;;;;;21.12;64.36523;94571.41;;;;
2022/06/20 01:14:22;;;;;;;17.25;12.1;;;;;;;21.12;64.36523;94571.41;;;;
2022/06/20 01:15:28;;;;;;;17.25;12.1;;;;;;;21.12;64.36523;94571.41;;;;
2022/06/20 01:16:34;;;;;;;17.25;12.1;;;;;;;21.12;64.36523;94571.41;;;;
2022/06/20 01:17:35;;;;;;;16.35;11.65;;;;;;;20.93;64.84863;94580.8;;;;
2022/06/20 01:18:38;;;;;;;16.35;11.65;;;;;;;20.93;64.84863;94580.8;;;;
2022/06/20 01:19:42;;;;;;;16.35;11.65;;;;;;;20.93;64.84863;94580.8;;;;
2022/06/20 01:20:48;;;;;;;16.35;11.65;;;;;;;20.93;64.84863;94580.8;;;;
2022/06/20 01:21:50;;;;;;;16.35;11.65;;;;;;;20.93;64.84863;94580.8;;;;
2022/06/20 01:22:51;;;;;;;16.35;11.65;;;;;;;20.93;64.84863;94580.8;;;;
2022/06/20 01:24:03;;;;;;;16.35;11.65;;;;;;;20.93;64.84863;94580.8;;;;
2022/06/20 01:25:12;;;;;;;16.35;11.65;;;;;;;20.93;64.84863;94580.8;;;;
2022/06/20 01:26:27;;;;;;;16.35;11.65;;;;;;;20.93;64.84863;94580.8;;;;
2022/06/20 01:27:40;;;;;;;18.35;11.75;;;;;;;20.79;65.14648;94579.16;;;;
2022/06/20 01:28:43;;;;;;;18.35;11.75;;;;;;;20.79;65.14648;94579.16;;;;
2022/06/20 01:29:47;;;;;;;18.35;11.75;;;;;;;20.79;65.14648;94579.16;;;;
2022/06/20 01:30:48;;;;;;;18.35;11.75;;;;;;;20.79;65.14648;94579.16;;;;
2022/06/20 01:31:49;;;;;;;18.35;11.75;;;;;;;20.79;65.14648;94579.16;;;;
2022/06/20 01:32:53;;;;;;;18.35;11.75;;;;;;;20.79;65.14648;94579.16;;;;
2022/06/20 01:33:56;;;;;;;18.35;11.75;;;;;;;20.79;65.14648;94579.16;;;;
2022/06/20 01:34:59;;;;;;;18.35;11.75;;;;;;;20.79;65.14648;94579.16;;;;
2022/06/20 01:42:19;;;;;;;17.05;11.1;;;;;;;20.73;65.42578;94576.7;;;;
2022/06/20 01:43:22;;;;;;;17.05;11.1;;;;;;;20.73;65.42578;94576.7;;;;
2022/06/20 01:44:22;;;;;;;17.05;11.1;;;;;;;20.73;65.42578;94576.7;;;;
2022/06/20 01:46:28;;;;;;;17.05;11.1;;;;;;;20.73;65.42578;94576.7;;;;
2022/06/20 01:47:31;;;;;;;17.05;11.1;;;;;;;20.73;65.42578;94576.7;;;;
2022/06/20 01:48:32;;;;;;;17.05;11.1;;;;;;;20.73;65.42578;94576.7;;;;
2022/06/20 01:49:33;;;;;;;20.15;11.75;;;;;;;20.6;65.63672;94578.38;;;;
2022/06/20 01:50:36;;;;;;;20.15;11.75;;;;;;;20.6;65.63672;94578.38;;;;
2022/06/20 01:51:37;;;;;;;20.15;11.75;;;;;;;20.6;65.63672;94578.38;;;;
2022/06/20 01:52:42;;;;;;;20.15;11.75;;;;;;;20.6;65.63672;94578.38;;;;
2022/06/20 01:53:43;;;;;;;20.15;11.75;;;;;;;20.6;65.63672;94578.38;;;;
2022/06/20 01:54:45;;;;;;;20.15;11.75;;;;;;;20.6;65.63672;94578.38;;;;
2022/06/20 01:55:50;;;;;;;20.15;11.75;;;;;;;20.6;65.63672;94578.38;;;;
2022/06/20 01:56:54;;;;;;;20.15;11.75;;;;;;;20.6;65.63672;94578.38;;;;
2022/06/20 01:57:55;;;;;;;20.15;11.75;;;;;;;20.6;65.63672;94578.38;;;;
2022/06/20 01:59:05;;;;;;;20.15;11.75;;;;;;;20.6;65.63672;94578.38;;;;
2022/06/20 02:00:10;;;;;;;18;11.75;;;;;;;20.51;65.74707;94600.11;;;;
2022/06/20 02:01:14;;;;;;;18;11.75;;;;;;;20.51;65.74707;94600.11;;;;
2022/06/20 02:02:15;;;;;;;18;11.75;;;;;;;20.51;65.74707;94600.11;;;;
2022/06/20 02:03:17;;;;;;;18;11.75;;;;;;;20.51;65.74707;94600.11;;;;
2022/06/20 02:04:20;;;;;;;18;11.75;;;;;;;20.51;65.74707;94600.11;;;;
2022/06/20 02:05:26;;;;;;;18;11.75;;;;;;;20.51;65.74707;94600.11;;;;
2022/06/20 02:06:29;;;;;;;18;11.75;;;;;;;20.51;65.74707;94600.11;;;;
2022/06/20 02:07:31;;;;;;;18;11.75;;;;;;;20.51;65.74707;94600.11;;;;
2022/06/20 02:08:32;;;;;;;18;11.75;;;;;;;20.51;65.74707;94600.11;;;;
2022/06/20 02:09:36;;;;;;;18;11.75;;;;;;;20.51;65.74707;94600.11;;;;
2022/06/20 02:10:39;;;;;;;22.45;12.9;;;;;;;20.4;66.22754;94606.31;;;;
2022/06/20 02:11:46;;;;;;;22.45;12.9;;;;;;;20.4;66.22754;94606.31;;;;
2022/06/20 02:12:48;;;;;;;22.45;12.9;;;;;;;20.4;66.22754;94606.31;;;;
2022/06/20 02:13:50;;;;;;;22.45;12.9;;;;;;;20.4;66.22754;94606.31;;;;
2022/06/20 02:14:55;;;;;;;22.45;12.9;;;;;;;20.4;66.22754;94606.31;;;;
2022/06/20 02:15:58;;;;;;;22.45;12.9;;;;;;;20.4;66.22754;94606.31;;;;
2022/06/20 02:17:03;;;;;;;22.45;12.9;;;;;;;20.4;66.22754;94606.31;;;;
2022/06/20 02:18:09;;;;;;;22.45;12.9;;;;;;;20.4;66.22754;94606.31;;;;
2022/06/20 02:19:11;;;;;;;22.45;12.9;;;;;;;20.4;66.22754;94606.31;;;;
2022/06/20 02:20:16;;;;;;;22.45;12.9;;;;;;;20.4;66.22754;94606.31;;;;
2022/06/20 02:21:20;;;;;;;18.2;11.75;;;;;;;20.52;66.67383;94599.17;;;;
2022/06/20 02:22:24;;;;;;;18.2;11.75;;;;;;;20.52;66.67383;94599.17;;;;
2022/06/20 02:23:26;;;;;;;18.2;11.75;;;;;;;20.52;66.67383;94599.17;;;;
2022/06/20 02:24:30;;;;;;;18.2;11.75;;;;;;;20.52;66.67383;94599.17;;;;
2022/06/20 02:25:35;;;;;;;18.2;11.75;;;;;;;20.52;66.67383;94599.17;;;;
2022/06/20 02:26:36;;;;;;;18.2;11.75;;;;;;;20.52;66.67383;94599.17;;;;
2022/06/20 02:27:39;;;;;;;18.2;11.75;;;;;;;20.52;66.67383;94599.17;;;;
2022/06/20 02:28:43;;;;;;;18.2;11.75;;;;;;;20.52;66.67383;94599.17;;;;
2022/06/20 02:29:50;;;;;;;18.2;11.75;;;;;;;20.52;66.67383;94599.17;;;;
2022/06/20 02:30:51;;;;;;;18.2;11.75;;;;;;;20.52;66.67383;94599.17;;;;
2022/06/20 02:31:51;;;;;;;19.15;11.3;;;;;;;20.56;66.85742;94591.99;;;;
2022/06/20 02:33:06;;;;;;;19.15;11.3;;;;;;;20.56;66.85742;94591.99;;;;
2022/06/20 02:34:11;;;;;;;19.15;11.3;;;;;;;20.56;66.85742;94591.99;;;;
2022/06/20 02:35:12;;;;;;;19.15;11.3;;;;;;;20.56;66.85742;94591.99;;;;
2022/06/20 02:36:15;;;;;;;19.15;11.3;;;;;;;20.56;66.85742;94591.99;;;;
2022/06/20 02:37:19;;;;;;;19.15;11.3;;;;;;;20.56;66.85742;94591.99;;;;
2022/06/20 02:38:24;;;;;;;19.15;11.3;;;;;;;20.56;66.85742;94591.99;;;;
2022/06/20 02:39:25;;;;;;;19.15;11.3;;;;;;;20.56;66.85742;94591.99;;;;
2022/06/20 02:40:25;;;;;;;19.15;11.3;;;;;;;20.56;66.85742;94591.99;;;;
2022/06/20 02:41:26;;;;;;;19.15;11.3;;;;;;;20.56;66.85742;94591.99;;;;
2022/06/20 02:42:29;;;;;;;18.05;12.05;;;;;;;20.68;66.88574;94597.46;;;;
2022/06/20 02:43:34;;;;;;;18.05;12.05;;;;;;;20.68;66.88574;94597.46;;;;
2022/06/20 02:44:39;;;;;;;18.05;12.05;;;;;;;20.68;66.88574;94597.46;;;;
2022/06/20 02:45:42;;;;;;;18.05;12.05;;;;;;;20.68;66.88574;94597.46;;;;
2022/06/20 02:46:44;;;;;;;18.05;12.05;;;;;;;20.68;66.88574;94597.46;;;;
2022/06/20 02:47:48;;;;;;;18.05;12.05;;;;;;;20.68;66.88574;94597.46;;;;
2022/06/20 02:48:51;;;;;;;18.05;12.05;;;;;;;20.68;66.88574;94597.46;;;;
2022/06/20 02:49:54;;;;;;;18.05;12.05;;;;;;;20.68;66.88574;94597.46;;;;
2022/06/20 02:50:58;;;;;;;18.05;12.05;;;;;;;20.68;66.88574;94597.46;;;;
2022/06/20 02:52:04;;;;;;;18.05;12.05;;;;;;;20.68;66.88574;94597.46;;;;
2022/06/20 02:53:08;;;;;;;17.75;11.05;;;;;;;20.68;66.99609;94588.47;;;;
2022/06/20 02:54:17;;;;;;;17.75;11.05;;;;;;;20.68;66.99609;94588.47;;;;
2022/06/20 02:55:20;;;;;;;17.75;11.05;;;;;;;20.68;66.99609;94588.47;;;;
2022/06/20 02:56:22;;;;;;;17.75;11.05;;;;;;;20.68;66.99609;94588.47;;;;
2022/06/20 02:57:26;;;;;;;17.75;11.05;;;;;;;20.68;66.99609;94588.47;;;;
2022/06/20 02:58:33;;;;;;;17.75;11.05;;;;;;;20.68;66.99609;94588.47;;;;
2022/06/20 02:59:38;;;;;;;17.75;11.05;;;;;;;20.68;66.99609;94588.47;;;;
2022/06/20 03:00:44;;;;;;;17.75;11.05;;;;;;;20.68;66.99609;94588.47;;;;
2022/06/20 03:01:52;;;;;;;17.75;11.05;;;;;;;20.68;66.99609;94588.47;;;;
2022/06/20 03:02:55;;;;;;;17.75;11.05;;;;;;;20.68;66.99609;94588.47;;;;
2022/06/20 03:04:01;;;;;;;16.95;10.9;;;;;;;20.68;66.99707;94596.36;;;;
2022/06/20 03:05:04;;;;;;;16.95;10.9;;;;;;;20.68;66.99707;94596.36;;;;
2022/06/20 03:06:06;;;;;;;16.95;10.9;;;;;;;20.68;66.99707;94596.36;;;;
2022/06/20 03:07:12;;;;;;;16.95;10.9;;;;;;;20.68;66.99707;94596.36;;;;
2022/06/20 03:08:15;;;;;;;16.95;10.9;;;;;;;20.68;66.99707;94596.36;;;;
2022/06/20 03:09:16;;;;;;;16.95;10.9;;;;;;;20.68;66.99707;94596.36;;;;
2022/06/20 03:10:24;;;;;;;16.95;10.9;;;;;;;20.68;66.99707;94596.36;;;;
2022/06/20 03:11:28;;;;;;;16.95;10.9;;;;;;;20.68;66.99707;94596.36;;;;
2022/06/20 03:12:35;;;;;;;16.95;10.9;;;;;;;20.68;66.99707;94596.36;;;;
2022/06/20 03:13:35;;;;;;;16.95;10.9;;;;;;;20.68;66.99707;94596.36;;;;
2022/06/20 03:14:37;;;;;;;17.25;10.95;;;;;;;20.58;67.10352;94582.7;;;;
2022/06/20 03:15:43;;;;;;;17.25;10.95;;;;;;;20.58;67.10352;94582.7;;;;
2022/06/20 03:16:44;;;;;;;17.25;10.95;;;;;;;20.58;67.10352;94582.7;;;;
2022/06/20 03:17:45;;;;;;;17.25;10.95;;;;;;;20.58;67.10352;94582.7;;;;
2022/06/20 03:18:49;;;;;;;17.25;10.95;;;;;;;20.58;67.10352;94582.7;;;;
2022/06/20 03:19:51;;;;;;;17.25;10.95;;;;;;;20.58;67.10352;94582.7;;;;
2022/06/20 03:20:54;;;;;;;17.25;10.95;;;;;;;20.58;67.10352;94582.7;;;;
2022/06/20 03:21:55;;;;;;;17.25;10.95;;;;;;;20.58;67.10352;94582.7;;;;
2022/06/20 03:22:59;;;;;;;17.25;10.95;;;;;;;20.58;67.10352;94582.7;;;;
2022/06/20 03:24:05;;;;;;;17.25;10.95;;;;;;;20.58;67.10352;94582.7;;;;
2022/06/20 03:25:06;;;;;;;16.25;11.1;;;;;;;20.6;66.92773;94596.23;;;;
2022/06/20 03:26:12;;;;;;;16.25;11.1;;;;;;;20.6;66.92773;94596.23;;;;
2022/06/20 03:27:17;;;;;;;16.25;11.1;;;;;;;20.6;66.92773;94596.23;;;;
2022/06/20 03:28:22;;;;;;;16.25;11.1;;;;;;;20.6;66.92773;94596.23;;;;
2022/06/20 03:29:25;;;;;;;16.25;11.1;;;;;;;20.6;66.92773;94596.23;;;;
2022/06/20 03:30:25;;;;;;;16.25;11.1;;;;;;;20.6;66.92773;94596.23;;;;
2022/06/20 03:31:30;;;;;;;16.25;11.1;;;;;;;20.6;66.92773;94596.23;;;;
2022/06/20 03:32:30;;;;;;;16.25;11.1;;;;;;;20.6;66.92773;94596.23;;;;
2022/06/20 03:33:31;;;;;;;16.25;11.1;;;;;;;20.6;66.92773;94596.23;;;;
2022/06/20 03:34:32;;;;;;;16.25;11.1;;;;;;;20.6;66.92773;94596.23;;;;
2022/06/20 03:35:33;;;;;;;16.25;11.1;;;;;;;20.6;66.92773;94596.23;;;;
2022/06/20 03:36:35;;;;;;;18.2;11;;;;;;;20.5;67.10254;94595.84;;;;
2022/06/20 03:37:37;;;;;;;18.2;11;;;;;;;20.5;67.10254;94595.84;;;;
2022/06/20 03:38:37;;;;;;;18.2;11;;;;;;;20.5;67.10254;94595.84;;;;
2022/06/20 03:39:40;;;;;;;18.2;11;;;;;;;20.5;67.10254;94595.84;;;;
2022/06/20 03:40:42;;;;;;;18.2;11;;;;;;;20.5;67.10254;94595.84;;;;
2022/06/20 03:41:43;;;;;;;18.2;11;;;;;;;20.5;67.10254;94595.84;;;;
2022/06/20 03:42:45;;;;;;;18.2;11;;;;;;;20.5;67.10254;94595.84;;;;
2022/06/20 03:43:46;;;;;;;18.2;11;;;;;;;20.5;67.10254;94595.84;;;;
2022/06/20 03:44:51;;;;;;;18.2;11;;;;;;;20.5;67.10254;94595.84;;;;
2022/06/20 03:45:57;;;;;;;18.2;11;;;;;;;20.5;67.10254;94595.84;;;;
2022/06/20 03:47:00;;;;;;;13.35;10.3;;;;;;;20.69;66.78711;94586.42;;;;
2022/06/20 03:48:05;;;;;;;13.35;10.3;;;;;;;20.69;66.78711;94586.42;;;;
2022/06/20 03:49:09;;;;;;;13.35;10.3;;;;;;;20.69;66.78711;94586.42;;;;
2022/06/20 03:50:15;;;;;;;13.35;10.3;;;;;;;20.69;66.78711;94586.42;;;;
2022/06/20 03:51:21;;;;;;;13.35;10.3;;;;;;;20.69;66.78711;94586.42;;;;
2022/06/20 03:52:28;;;;;;;13.35;10.3;;;;;;;20.69;66.78711;94586.42;;;;
2022/06/20 03:53:33;;;;;;;13.35;10.3;;;;;;;20.69;66.78711;94586.42;;;;
2022/06/20 03:54:38;;;;;;;13.35;10.3;;;;;;;20.69;66.78711;94586.42;;;;
2022/06/20 03:55:45;;;;;;;13.35;10.3;;;;;;;20.69;66.78711;94586.42;;;;
2022/06/20 03:56:53;;;;;;;13.35;10.3;;;;;;;20.69;66.78711;94586.42;;;;
2022/06/20 03:57:59;;;;;;;14.6;10.2;;;;;;;20.77;66.40234;94593.42;;;;
2022/06/20 03:59:07;;;;;;;14.6;10.2;;;;;;;20.77;66.40234;94593.42;;;;
2022/06/20 04:00:11;;;;;;;14.6;10.2;;;;;;;20.77;66.40234;94593.42;;;;
2022/06/20 04:01:15;;;;;;;14.6;10.2;;;;;;;20.77;66.40234;94593.42;;;;
2022/06/20 04:02:23;;;;;;;14.6;10.2;;;;;;;20.77;66.40234;94593.42;;;;
2022/06/20 04:03:30;;;;;;;14.6;10.2;;;;;;;20.77;66.40234;94593.42;;;;
2022/06/20 04:04:38;;;;;;;14.6;10.2;;;;;;;20.77;66.40234;94593.42;;;;
2022/06/20 04:05:44;;;;;;;14.6;10.2;;;;;;;20.77;66.40234;94593.42;;;;
2022/06/20 04:06:50;;;;;;;14.6;10.2;;;;;;;20.77;66.40234;94593.42;;;;
2022/06/20 04:07:55;;;;;;;17.6;10.7;;;;;;;20.88;66.29785;94603.73;;;;
2022/06/20 04:14:21;;;;;;;17.6;10.7;;;;;;;20.88;66.29785;94603.73;;;;
2022/06/20 04:15:28;;;;;;;17.6;10.7;;;;;;;20.88;66.29785;94603.73;;;;
2022/06/20 04:16:37;;;;;;;17.6;10.7;;;;;;;20.88;66.29785;94603.73;;;;
2022/06/20 04:18:49;;;;;;;17.6;10.7;;;;;;;20.88;66.29785;94603.73;;;;
2022/06/20 04:19:57;;;;;;;18.6;10.65;;;;;;;21.02;65.99707;94608.8;;;;
2022/06/20 04:21:01;;;;;;;18.6;10.65;;;;;;;21.02;65.99707;94608.8;;;;
2022/06/20 04:22:11;;;;;;;18.6;10.65;;;;;;;21.02;65.99707;94608.8;;;;
2022/06/20 04:23:15;;;;;;;18.6;10.65;;;;;;;21.02;65.99707;94608.8;;;;
2022/06/20 04:24:21;;;;;;;18.6;10.65;;;;;;;21.02;65.99707;94608.8;;;;
2022/06/20 04:25:28;;;;;;;18.6;10.65;;;;;;;21.02;65.99707;94608.8;;;;
2022/06/20 04:26:34;;;;;;;18.6;10.65;;;;;;;21.02;65.99707;94608.8;;;;
2022/06/20 04:27:40;;;;;;;18.6;10.65;;;;;;;21.02;65.99707;94608.8;;;;
2022/06/20 04:28:46;;;;;;;18.6;10.65;;;;;;;21.02;65.99707;94608.8;;;;
2022/06/20 04:29:51;;;;;;;17.05;10.3;;;;;;;21.43;65.6377;94613.76;;;;
2022/06/20 04:30:57;;;;;;;17.05;10.3;;;;;;;21.43;65.6377;94613.76;;;;
2022/06/20 04:32:07;;;;;;;17.05;10.3;;;;;;;21.43;65.6377;94613.76;;;;
2022/06/20 04:33:13;;;;;;;17.05;10.3;;;;;;;21.43;65.6377;94613.76;;;;
2022/06/20 04:34:20;;;;;;;17.05;10.3;;;;;;;21.43;65.6377;94613.76;;;;
2022/06/20 04:35:26;;;;;;;17.05;10.3;;;;;;;21.43;65.6377;94613.76;;;;
2022/06/20 04:36:32;;;;;;;17.05;10.3;;;;;;;21.43;65.6377;94613.76;;;;
2022/06/20 04:37:38;;;;;;;17.05;10.3;;;;;;;21.43;65.6377;94613.76;;;;
2022/06/20 04:38:44;;;;;;;17.05;10.3;;;;;;;21.43;65.6377;94613.76;;;;
2022/06/20 04:39:50;;;;;;;17.35;10.05;;;;;;;22.01;64.70313;94646.36;;;;
2022/06/20 04:40:59;;;;;;;17.35;10.05;;;;;;;22.01;64.70313;94646.36;;;;
2022/06/20 04:42:04;;;;;;;17.35;10.05;;;;;;;22.01;64.70313;94646.36;;;;
2022/06/20 04:43:12;;;;;;;17.35;10.05;;;;;;;22.01;64.70313;94646.36;;;;
2022/06/20 04:44:19;;;;;;;17.35;10.05;;;;;;;22.01;64.70313;94646.36;;;;
2022/06/20 04:45:27;;;;;;;17.35;10.05;;;;;;;22.01;64.70313;94646.36;;;;
2022/06/20 04:46:34;;;;;;;17.35;10.05;;;;;;;22.01;64.70313;94646.36;;;;
2022/06/20 04:47:42;;;;;;;17.35;10.05;;;;;;;22.01;64.70313;94646.36;;;;
2022/06/20 04:48:47;;;;;;;17.35;10.05;;;;;;;22.01;64.70313;94646.36;;;;
2022/06/20 04:49:49;;;;;;;17.35;10.05;;;;;;;22.01;64.70313;94646.36;;;;
2022/06/20 04:50:49;;;;;;;17.3;10.2;;;;;;;22.73;64.08789;94663.76;;;;
2022/06/20 04:51:53;;;;;;;17.3;10.2;;;;;;;22.73;64.08789;94663.76;;;;
2022/06/20 04:52:53;;;;;;;17.3;10.2;;;;;;;22.73;64.08789;94663.76;;;;
2022/06/20 04:53:59;;;;;;;17.3;10.2;;;;;;;22.73;64.08789;94663.76;;;;
2022/06/20 04:55:01;;;;;;;17.3;10.2;;;;;;;22.73;64.08789;94663.76;;;;
2022/06/20 04:56:04;;;;;;;17.3;10.2;;;;;;;22.73;64.08789;94663.76;;;;
2022/06/20 04:57:07;;;;;;;17.3;10.2;;;;;;;22.73;64.08789;94663.76;;;;
2022/06/20 04:58:09;;;;;;;17.3;10.2;;;;;;;22.73;64.08789;94663.76;;;;
2022/06/20 04:59:17;;;;;;;17.3;10.2;;;;;;;22.73;64.08789;94663.76;;;;
2022/06/20 05:00:22;;;;;;;17.3;10.2;;;;;;;22.73;64.08789;94663.76;;;;
2022/06/20 05:01:28;;;;;;;15.5;9.550001;;;;;;;23.24;63.46094;94657.48;;;;
2022/06/20 05:02:33;;;;;;;15.5;9.550001;;;;;;;23.24;63.46094;94657.48;;;;
2022/06/20 05:03:35;;;;;;;15.5;9.550001;;;;;;;23.24;63.46094;94657.48;;;;
2022/06/20 05:04:40;;;;;;;15.5;9.550001;;;;;;;23.24;63.46094;94657.48;;;;
2022/06/20 05:05:44;;;;;;;15.5;9.550001;;;;;;;23.24;63.46094;94657.48;;;;
2022/06/20 05:06:48;;;;;;;15.5;9.550001;;;;;;;23.24;63.46094;94657.48;;;;
2022/06/20 05:07:50;;;;;;;15.5;9.550001;;;;;;;23.24;63.46094;94657.48;;;;
2022/06/20 05:08:51;;;;;;;15.5;9.550001;;;;;;;23.24;63.46094;94657.48;;;;
2022/06/20 05:09:54;;;;;;;15.5;9.550001;;;;;;;23.24;63.46094;94657.48;;;;
2022/06/20 05:11:00;;;;;;;15.5;9.550001;;;;;;;23.24;63.46094;94657.48;;;;
2022/06/20 05:12:06;;;;;;;15.5;9.550001;;;;;;;23.24;63.46094;94657.48;;;;
2022/06/20 05:13:12;;;;;;;15.5;9.550001;;;;;;;23.24;63.46094;94657.48;;;;
2022/06/20 05:14:19;;;;;;;15.5;9.550001;;;;;;;23.24;63.46094;94657.48;;;;
2022/06/20 05:15:29;;;;;;;15.5;9.550001;;;;;;;23.24;63.46094;94657.48;;;;
2022/06/20 05:16:35;;;;;;;15.5;9.550001;;;;;;;23.24;63.46094;94657.48;;;;
2022/06/20 05:17:41;;;;;;;15.5;9.550001;;;;;;;23.24;63.46094;94657.48;;;;
2022/06/20 05:18:44;;;;;;;15.5;9.550001;;;;;;;23.24;63.46094;94657.48;;;;
2022/06/20 05:19:48;;;;;;;15.5;9.550001;;;;;;;23.24;63.46094;94657.48;;;;
2022/06/20 05:20:53;;;;;;;15.5;9.550001;;;;;;;23.24;63.46094;94657.48;;;;
2022/06/20 05:21:58;;;;;;;15.5;9.550001;;;;;;;23.24;63.46094;94657.48;;;;
2022/06/20 05:23:01;;;;;;;15.5;9.550001;;;;;;;23.24;63.46094;94657.48;;;;
2022/06/20 05:24:09;;;;;;;15.5;9.550001;;;;;;;23.24;63.46094;94657.48;;;;
2022/06/20 05:25:14;;;;;;;15.5;9.550001;;;;;;;23.24;63.46094;94657.48;;;;
2022/06/20 05:26:18;;;;;;;15.5;9.550001;;;;;;;23.24;63.46094;94657.48;;;;
2022/06/20 05:27:21;;;;;;;15.5;9.550001;;;;;;;23.24;63.46094;94657.48;;;;
2022/06/20 05:28:26;;;;;;;15.5;9.550001;;;;;;;23.24;63.46094;94657.48;;;;
2022/06/20 05:29:27;;;;;;;15.5;9.550001;;;;;;;23.24;63.46094;94657.48;;;;
2022/06/20 05:30:31;;;;;;;15.5;9.550001;;;;;;;23.24;63.46094;94657.48;;;;
2022/06/20 05:31:35;;;;;;;15.5;9.550001;;;;;;;23.24;63.46094;94657.48;;;;
2022/06/20 05:32:43;;;;;;;15.5;9.550001;;;;;;;23.24;63.46094;94657.48;;;;
2022/06/20 05:33:49;;;;;;;15.5;9.550001;;;;;;;23.24;63.46094;94657.48;;;;
2022/06/20 05:34:58;;;;;;;15.5;9.550001;;;;;;;23.24;63.46094;94657.48;;;;
2022/06/20 05:36:03;;;;;;;15.5;9.550001;;;;;;;23.24;63.46094;94657.48;;;;
2022/06/20 05:37:10;;;;;;;15.5;9.550001;;;;;;;23.24;63.46094;94657.48;;;;
2022/06/20 05:38:16;;;;;;;15.5;9.550001;;;;;;;23.24;63.46094;94657.48;;;;
2022/06/20 05:39:24;;;;;;;15.5;9.550001;;;;;;;23.24;63.46094;94657.48;;;;
2022/06/20 05:40:29;;;;;;;15.5;9.550001;;;;;;;23.24;63.46094;94657.48;;;;
2022/06/20 05:41:34;;;;;;;15.5;9.550001;;;;;;;23.24;63.46094;94657.48;;;;
2022/06/20 05:42:34;;;;;;;15.5;9.550001;;;;;;;23.24;63.46094;94657.48;;;;
2022/06/20 05:43:35;;;;;;;15.5;9.550001;;;;;;;23.24;63.46094;94657.48;;;;
2022/06/20 05:44:36;;;;;;;15.45;8.549999;;;;;;;25.37;59.62793;94718.65;;;;
2022/06/20 05:45:36;;;;;;;15.45;8.549999;;;;;;;25.37;59.62793;94718.65;;;;
2022/06/20 05:46:37;;;;;;;15.45;8.549999;;;;;;;25.37;59.62793;94718.65;;;;
2022/06/20 05:47:42;;;;;;;15.45;8.549999;;;;;;;25.37;59.62793;94718.65;;;;
2022/06/20 05:48:47;;;;;;;15.45;8.549999;;;;;;;25.37;59.62793;94718.65;;;;
2022/06/20 05:49:52;;;;;;;15.45;8.549999;;;;;;;25.37;59.62793;94718.65;;;;
2022/06/20 05:50:58;;;;;;;15.45;8.549999;;;;;;;25.37;59.62793;94718.65;;;;
2022/06/20 05:52:01;;;;;;;15.45;8.549999;;;;;;;25.37;59.62793;94718.65;;;;
2022/06/20 05:53:05;;;;;;;15.45;8.549999;;;;;;;25.37;59.62793;94718.65;;;;
2022/06/20 05:54:12;;;;;;;15.45;8.549999;;;;;;;25.37;59.62793;94718.65;;;;
2022/06/20 05:55:17;;;;;;;15.45;8.549999;;;;;;;25.37;59.62793;94718.65;;;;
2022/06/20 05:56:22;;;;;;;15.45;8.549999;;;;;;;25.37;59.62793;94718.65;;;;
2022/06/20 05:57:27;;;;;;;15.45;8.549999;;;;;;;25.37;59.62793;94718.65;;;;
2022/06/20 05:58:30;;;;;;;15.45;8.549999;;;;;;;25.37;59.62793;94718.65;;;;
2022/06/20 05:59:34;;;;;;;15.45;8.549999;;;;;;;25.37;59.62793;94718.65;;;;
2022/06/20 06:00:41;;;;;;;15.45;8.549999;;;;;;;25.37;59.62793;94718.65;;;;
2022/06/20 06:01:43;;;;;;;15.45;8.549999;;;;;;;25.37;59.62793;94718.65;;;;
2022/06/20 06:02:43;;;;;;;15.45;8.549999;;;;;;;25.37;59.62793;94718.65;;;;
2022/06/20 06:03:49;;;;;;;15.45;8.549999;;;;;;;25.37;59.62793;94718.65;;;;
2022/06/20 06:04:59;;;;;;;15.45;8.549999;;;;;;;25.37;59.62793;94718.65;;;;
2022/06/20 06:06:08;;;;;;;14.45;8.750001;;;;;;;26.29;56.58008;94759.53;;;;
2022/06/20 06:07:16;;;;;;;14.45;8.750001;;;;;;;26.29;56.58008;94759.53;;;;
2022/06/20 06:08:22;;;;;;;14.45;8.750001;;;;;;;26.29;56.58008;94759.53;;;;
2022/06/20 06:09:27;;;;;;;14.45;8.750001;;;;;;;26.29;56.58008;94759.53;;;;